Flight Track Log - Related Links

Times and Time Zones

All times are in EDT time to prevent confusion due to time zone crossing. See the UAL3842 flight status page for this flight to view local times or setup timezone preferences in your user account.

Time Position Orientation Groundspeed Altitude Reporting Facility
EDT Latitude Longitude Course Direction KTS MPH feet Rate Location/Type
Sat 02:26:15 PM 41.3564 -81.8917 191° South 190 219 3,000  Level Cleveland Center
Sat 02:27:19 PM 41.3069 -81.8325 138° Southeast 212 244 4,500 1,839 Climbing Cleveland Center
Sat 02:28:19 PM 41.2786 -81.7408 112° Southeast 253 291 6,800 2,050 Climbing Cleveland Center
Sat 02:29:00 PM 41.1782 -81.3618 127° Southeast  Level FlightAware Approximate
Sat 02:29:19 PM 41.2525 -81.6519 111° Southeast 273 314 8,600  Level Cleveland Center
Sat 02:30:00 PM 41.1176 -81.2441 118° Southeast  Level FlightAware Approximate
Sat 02:30:19 PM 41.2161 -81.5328 112° Southeast 293 337 10,300  Level Cleveland Center
Sat 02:31:19 PM 41.1772 -81.4108 113° Southeast 325 374 11,000 1,050 Climbing Cleveland Center
Sat 02:32:19 PM 41.1386 -81.2972 114° Southeast 366 421 12,400 1,300 Climbing Cleveland Center
Sat 02:33:19 PM 41.0661 -81.1833 130° Southeast 370 426 13,600 1,200 Climbing Cleveland Center
Sat 02:34:19 PM 40.9581 -81.1467 166° South 361 415 14,800 1,350 Climbing Cleveland Center
Sat 02:35:19 PM 40.8497 -81.1100 166° South 389 448 16,300 1,450 Climbing Cleveland Center
Sat 02:36:19 PM 40.7436 -81.0736 165° South 398 458 17,700 1,200 Climbing Cleveland Center
Sat 02:37:19 PM 40.6500 -81.0372 164° South 398 458 18,700 900 Climbing Cleveland Center
Sat 02:38:19 PM 40.5522 -80.9631 150° Southeast 398 458 19,500 1,100 Climbing Cleveland Center
Sat 02:39:19 PM 40.4650 -80.8642 139° Southeast 405 466 20,900 1,400 Climbing Cleveland Center
Sat 02:40:19 PM 40.3775 -80.7631 139° Southeast 410 472 22,300 1,050 Climbing Cleveland Center
Sat 02:41:19 PM 40.2903 -80.6675 140° Southeast 415 478 23,000 350 Climbing Cleveland Center
Sat 02:42:19 PM 40.1944 -80.5614 140° Southeast 428 493 23,000  Level Cleveland Center
Sat 02:43:19 PM 40.0964 -80.4528 140° Southeast 453 521 23,000  Level Cleveland Center
Sat 02:44:19 PM 39.9939 -80.3392 140° Southeast 470 541 23,000  Level Cleveland Center
Sat 02:45:19 PM 39.8914 -80.2258 140° Southeast 482 555 23,000  Level Cleveland Center
Sat 02:46:19 PM 39.7847 -80.1075 140° Southeast 482 555 23,000  Level Cleveland Center
Sat 02:47:19 PM 39.6822 -79.9922 139° Southeast 487 560 23,000  Level Cleveland Center
Sat 02:48:19 PM 39.5792 -79.8747 139° Southeast 487 560 23,000  Level Cleveland Center
Sat 02:49:03 PM 39.5397 -79.7547 113° Southeast 470 541 23,000  Level Washington Center
Sat 02:50:00 PM 39.5100 -79.5833 103° East 450 518 23,000  Level Washington Center
Sat 02:51:01 PM 39.4781 -79.4097 103° East 472 543 23,000  Level Washington Center
Sat 02:52:02 PM 39.4497 -79.2522 103° East 489 563 23,000  Level Washington Center
Sat 02:53:02 PM 39.4192 -79.0867 103° East 494 568 23,000 -800 Level Washington Center
Sat 02:54:02 PM 39.3903 -78.9322 104° East 466 536 21,400 -1,881 Descending Washington Center
Sat 02:55:00 PM 39.3631 -78.7833 103° East 437 503 19,300 -2,186 Descending Washington Center
Sat 02:56:00 PM 39.3394 -78.6456 102° East 417 480 17,100 -2,083 Descending Washington Center
Sat 02:57:01 PM 39.3156 -78.5131 103° East 397 457 15,100 -2,066 Descending Washington Center
Sat 02:58:02 PM 39.2894 -78.3858 105° East 376 433 12,900 -1,916 Descending Washington Center
Sat 02:59:00 PM 39.2419 -78.2794 120° Southeast 355 409 11,300 -1,220 Descending Washington Center
Sat 03:00:00 PM 39.1919 -78.1867 125° Southeast 333 383 10,500 -1,250 Descending Washington Center
Sat 03:01:00 PM 39.1436 -78.0967 125° Southeast 321 369 8,800 -1,736 Descending Washington Center
Sat 03:02:01 PM 39.0997 -78.0122 124° Southeast 299 344 7,000 -885 Descending Washington Center
Sat 03:03:02 PM 39.0553 -77.9306 125° Southeast 293 337 7,000  Level Washington Center
Sat 03:04:00 PM 39.0072 -77.8356 123° Southeast 288 331 7,000 -303 Level Washington Center
Sat 03:06:20 PM 38.9333 -77.6167 113° Southeast 275 316 6,000 -300 Descending Potomac TRACON
Sat 03:07:20 PM 38.8667 -77.5833 159° South 239 275 6,000 -500 Level Potomac TRACON
Sat 03:08:20 PM 38.8167 -77.5667 165° South 209 241 5,000 -1,000 Descending Potomac TRACON

Login

Don't have an account? Register now (free) for customized features, flight alerts, and more!